createdAt,value
2024-02-05T00:00:14.014Z,58.89
2024-02-05T00:02:40.265Z,58.85
2024-02-05T00:05:06.512Z,58.75
2024-02-05T00:07:32.772Z,58.75
2024-02-05T00:09:59.068Z,58.87
2024-02-05T00:12:25.262Z,59.01
2024-02-05T00:14:51.405Z,58.90
2024-02-05T00:17:17.615Z,58.92
2024-02-05T00:19:43.906Z,58.70
2024-02-05T00:22:10.171Z,58.79
2024-02-05T00:24:36.413Z,58.93
2024-02-05T00:27:02.611Z,58.76
2024-02-05T00:29:28.773Z,58.88
2024-02-05T00:31:54.943Z,58.69
2024-02-05T00:34:21.368Z,58.96
2024-02-05T00:36:47.705Z,58.58
2024-02-05T00:39:13.881Z,58.81
2024-02-05T00:41:40.069Z,58.87
2024-02-05T00:44:06.228Z,58.95
2024-02-05T00:46:32.392Z,58.86
2024-02-05T00:48:58.795Z,58.76
2024-02-05T00:51:25.075Z,59.19
2024-02-05T00:53:51.243Z,58.68
2024-02-05T00:56:17.427Z,58.78
2024-02-05T00:58:43.597Z,58.69
2024-02-05T01:01:09.853Z,59.09
2024-02-05T01:03:36.208Z,58.81
2024-02-05T01:06:02.586Z,58.74
2024-02-05T01:08:28.935Z,58.88
2024-02-05T01:10:55.182Z,58.73
2024-02-05T01:13:21.458Z,58.77
2024-02-05T01:15:47.633Z,58.78
2024-02-05T01:18:13.885Z,58.98
2024-02-05T01:20:40.057Z,58.87
2024-02-05T01:23:06.210Z,58.95
2024-02-05T01:25:32.365Z,58.75
2024-02-05T01:27:58.618Z,59.12
2024-02-05T01:30:24.804Z,58.89
2024-02-05T01:32:51.057Z,58.90
2024-02-05T01:35:17.260Z,58.84
2024-02-05T01:37:43.407Z,58.96
2024-02-05T01:40:09.682Z,59.12
2024-02-05T01:42:35.884Z,58.77
2024-02-05T01:45:02.064Z,58.80
2024-02-05T01:47:28.248Z,58.93
2024-02-05T01:49:54.454Z,58.78
2024-02-05T01:52:20.778Z,58.84
2024-02-05T01:54:47.092Z,58.94
2024-02-05T01:57:13.251Z,58.85
2024-02-05T01:59:39.425Z,58.91
2024-02-05T02:02:05.595Z,58.95
2024-02-05T02:04:31.835Z,58.72
2024-02-05T02:06:58.185Z,58.84
2024-02-05T02:09:24.442Z,58.78
2024-02-05T02:11:50.636Z,58.67
2024-02-05T02:14:16.786Z,58.90
2024-02-05T02:16:43.008Z,58.86
2024-02-05T02:19:09.234Z,58.89
2024-02-05T02:21:35.489Z,58.84
2024-02-05T02:24:01.708Z,58.96
2024-02-05T02:26:27.858Z,58.87
2024-02-05T02:28:54.020Z,58.70
2024-02-05T02:31:20.259Z,58.75
2024-02-05T02:33:46.659Z,58.85
2024-02-05T02:36:12.901Z,58.75
2024-02-05T02:38:39.073Z,58.88
2024-02-05T02:41:05.224Z,58.81
2024-02-05T02:43:31.392Z,58.91
2024-02-05T02:45:57.627Z,58.98
2024-02-05T02:48:23.926Z,58.88
2024-02-05T02:50:50.187Z,58.99
2024-02-05T02:53:16.478Z,58.75
2024-02-05T02:55:42.636Z,58.70
2024-02-05T02:58:08.915Z,58.97
2024-02-05T03:00:35.229Z,58.80
2024-02-05T03:03:01.511Z,58.82
2024-02-05T03:05:27.679Z,58.93
2024-02-05T03:07:53.842Z,58.95
2024-02-05T03:10:20.081Z,58.69
2024-02-05T03:12:46.338Z,58.96
2024-02-05T03:15:12.513Z,59.00
2024-02-05T03:17:38.810Z,58.90
2024-02-05T03:20:05.181Z,58.76
2024-02-05T03:22:31.507Z,58.66
2024-02-05T03:24:57.748Z,58.76
2024-02-05T03:27:23.905Z,58.93
2024-02-05T03:29:50.059Z,58.80
2024-02-05T03:32:16.201Z,58.80
2024-02-05T03:34:42.433Z,58.77
2024-02-05T03:37:08.740Z,58.88
2024-02-05T03:39:34.916Z,59.10
2024-02-05T03:42:01.088Z,59.00
2024-02-05T03:44:27.296Z,59.00
2024-02-05T03:46:53.518Z,58.75
2024-02-05T03:49:19.829Z,58.86
2024-02-05T03:51:46.109Z,58.99
2024-02-05T03:54:12.282Z,58.79
2024-02-05T03:56:38.463Z,58.97
2024-02-05T03:59:04.749Z,59.01
2024-02-05T04:01:31.147Z,58.97
2024-02-05T04:03:57.499Z,58.98
2024-02-05T04:06:23.817Z,59.09
2024-02-05T04:08:49.979Z,58.81
2024-02-05T04:11:16.130Z,59.15
2024-02-05T04:13:42.300Z,58.86
2024-02-05T04:16:08.504Z,58.93
2024-02-05T04:18:34.678Z,58.70
2024-02-05T04:21:00.889Z,58.93
2024-02-05T04:23:27.056Z,58.63
2024-02-05T04:25:53.220Z,58.81
2024-02-05T04:28:19.474Z,58.90
2024-02-05T04:30:45.707Z,58.68
2024-02-05T04:33:11.924Z,58.96
2024-02-05T04:35:38.146Z,58.70
2024-02-05T04:38:04.272Z,58.76
2024-02-05T04:40:30.454Z,58.87
2024-02-05T04:42:56.701Z,58.63
2024-02-05T04:45:22.877Z,58.89
2024-02-05T04:47:49.092Z,58.68
2024-02-05T04:50:15.410Z,58.79
2024-02-05T04:52:41.659Z,58.78
2024-02-05T04:55:07.905Z,58.73
2024-02-05T04:57:34.209Z,58.74
2024-02-05T05:00:00.410Z,59.03
2024-02-05T05:02:26.577Z,58.90
2024-02-05T05:04:52.779Z,58.90
2024-02-05T05:07:19.074Z,58.82
2024-02-05T05:09:45.274Z,58.85
2024-02-05T05:12:11.474Z,58.88
2024-02-05T05:14:37.692Z,58.54
2024-02-05T05:17:03.865Z,58.67
2024-02-05T05:19:30.081Z,58.85
2024-02-05T05:21:56.352Z,58.79
2024-02-05T05:24:22.526Z,58.87
2024-02-05T05:26:48.732Z,58.96
2024-02-05T05:29:14.901Z,58.69
2024-02-05T05:31:41.128Z,58.64
2024-02-05T05:34:07.418Z,58.68
2024-02-05T05:36:33.637Z,58.93
2024-02-05T05:38:59.768Z,58.67
2024-02-05T05:41:25.959Z,59.10
2024-02-05T05:43:52.107Z,58.90
2024-02-05T05:46:18.348Z,58.90
2024-02-05T05:48:44.630Z,58.91
2024-02-05T05:51:10.826Z,58.86
2024-02-05T05:53:36.995Z,58.76
2024-02-05T05:56:03.223Z,58.79
2024-02-05T05:58:29.405Z,58.87
2024-02-05T06:00:55.795Z,58.89
2024-02-05T06:03:22.160Z,58.82
2024-02-05T06:05:48.313Z,58.69
2024-02-05T06:08:14.474Z,58.94
2024-02-05T06:10:42.029Z,58.94
2024-02-05T06:13:08.539Z,58.72
2024-02-05T06:15:34.751Z,58.93
2024-02-05T06:18:00.971Z,58.95
2024-02-05T06:20:27.109Z,58.69
2024-02-05T06:22:53.258Z,58.81
2024-02-05T06:25:19.601Z,58.78
2024-02-05T06:27:45.887Z,58.73
2024-02-05T06:30:12.068Z,58.91
2024-02-05T06:32:38.280Z,58.82
2024-02-05T06:35:04.536Z,58.81
2024-02-05T06:37:30.797Z,58.85
2024-02-05T06:39:57.004Z,58.90
2024-02-05T06:42:23.197Z,58.69
2024-02-05T06:44:49.364Z,58.68
2024-02-05T06:47:15.586Z,58.71
2024-02-05T06:49:41.756Z,58.72
2024-02-05T06:52:07.998Z,58.75
2024-02-05T06:54:34.363Z,58.74
2024-02-05T06:57:00.650Z,58.68
2024-02-05T06:59:26.841Z,59.02
2024-02-05T07:01:53.164Z,58.75
2024-02-05T07:04:19.806Z,58.71
2024-02-05T07:06:46.197Z,58.75
2024-02-05T07:09:12.450Z,58.87
2024-02-05T07:11:38.634Z,58.79
2024-02-05T07:14:04.839Z,58.75
2024-02-05T07:16:31.165Z,58.77
2024-02-05T07:18:57.454Z,58.82
2024-02-05T07:21:23.702Z,58.71
2024-02-05T07:23:49.869Z,58.85
2024-02-05T07:26:16.050Z,58.79
2024-02-05T07:28:42.212Z,58.79
2024-02-05T07:31:08.441Z,58.75
2024-02-05T07:33:34.647Z,58.76
2024-02-05T07:36:00.805Z,58.84
2024-02-05T07:38:27.094Z,58.76
2024-02-05T07:40:53.338Z,58.64
2024-02-05T07:43:19.584Z,58.83
2024-02-05T07:45:45.931Z,58.80
2024-02-05T07:48:12.204Z,58.66
2024-02-05T07:50:38.416Z,58.94
2024-02-05T07:53:04.613Z,58.67
2024-02-05T07:55:30.835Z,58.65
2024-02-05T07:57:57.092Z,58.60
2024-02-05T08:00:23.425Z,58.81
2024-02-05T08:02:49.625Z,58.68
2024-02-05T08:05:15.991Z,58.77
2024-02-05T08:07:42.389Z,58.89
2024-02-05T08:10:08.675Z,58.55
2024-02-05T08:12:35.155Z,58.61
2024-02-05T08:15:01.404Z,58.81
2024-02-05T08:17:27.611Z,58.68
2024-02-05T08:19:53.802Z,58.53
2024-02-05T08:22:20.034Z,58.97
2024-02-05T08:24:46.255Z,58.79
2024-02-05T08:27:12.476Z,58.74
2024-02-05T08:29:38.652Z,58.62
2024-02-05T08:32:04.893Z,58.79
2024-02-05T08:34:31.258Z,58.74
2024-02-05T08:36:57.664Z,58.51
2024-02-05T08:39:23.808Z,58.62
2024-02-05T08:41:49.975Z,58.53
2024-02-05T08:44:16.147Z,58.79
2024-02-05T08:46:42.341Z,58.57
2024-02-05T08:49:08.680Z,58.61
2024-02-05T08:51:35.122Z,58.53
2024-02-05T08:54:01.274Z,58.70
2024-02-05T08:56:27.426Z,58.69
2024-02-05T08:58:53.622Z,58.37
2024-02-05T09:01:19.912Z,58.67
2024-02-05T09:03:46.180Z,58.62
2024-02-05T09:06:12.366Z,58.74
2024-02-05T09:08:38.614Z,58.56
2024-02-05T09:11:05.123Z,58.58
2024-02-05T09:13:31.341Z,58.57
2024-02-05T09:15:57.560Z,58.52
2024-02-05T09:18:23.832Z,58.62
2024-02-05T09:20:50.099Z,58.68
2024-02-05T09:23:16.240Z,58.65
2024-02-05T09:25:42.383Z,58.61
2024-02-05T09:28:08.603Z,58.59
2024-02-05T09:30:34.778Z,58.62
2024-02-05T09:33:00.953Z,58.45
2024-02-05T09:35:27.260Z,58.68
2024-02-05T09:37:53.509Z,58.50
2024-02-05T09:40:19.722Z,58.45
2024-02-05T09:42:46.038Z,58.55
2024-02-05T09:45:12.252Z,58.71
2024-02-05T09:47:38.537Z,58.33
2024-02-05T09:50:04.878Z,58.47
2024-02-05T09:52:31.205Z,58.62
2024-02-05T09:54:57.399Z,58.69
2024-02-05T09:57:23.614Z,58.69
2024-02-05T09:59:49.744Z,58.43
2024-02-05T10:02:17.230Z,58.49
2024-02-05T10:04:43.794Z,58.64
2024-02-05T10:07:10.128Z,58.37
2024-02-05T10:09:36.299Z,58.64
2024-02-05T10:12:02.565Z,58.42
2024-02-05T10:14:30.138Z,58.45
2024-02-05T10:16:56.494Z,58.37
2024-02-05T10:19:23.001Z,58.55
2024-02-05T10:21:49.376Z,58.47
2024-02-05T10:24:15.618Z,58.87
2024-02-05T10:26:41.911Z,58.64
2024-02-05T10:29:08.136Z,58.62
2024-02-05T10:31:35.646Z,58.43
2024-02-05T10:34:02.079Z,58.56
2024-02-05T10:36:28.328Z,58.46
2024-02-05T10:38:54.517Z,58.48
2024-02-05T10:41:20.773Z,58.35
2024-02-05T10:43:47.122Z,58.55
2024-02-05T10:46:13.427Z,58.52
2024-02-05T10:48:39.742Z,58.53
2024-02-05T10:51:05.954Z,58.58
2024-02-05T10:53:32.114Z,58.62
2024-02-05T10:55:58.315Z,58.39
2024-02-05T10:58:24.701Z,58.57
2024-02-05T11:00:50.952Z,58.37
2024-02-05T11:03:17.221Z,58.30
2024-02-05T11:05:43.430Z,58.26
2024-02-05T11:08:09.640Z,58.37
2024-02-05T11:10:35.863Z,58.40
2024-02-05T11:13:02.058Z,58.47
2024-02-05T11:15:28.224Z,58.47
2024-02-05T11:17:54.746Z,58.47
2024-02-05T11:20:20.987Z,58.49
2024-02-05T11:22:47.166Z,58.24
2024-02-05T11:25:13.462Z,58.38
2024-02-05T11:27:39.651Z,58.51
2024-02-05T11:30:05.837Z,58.52
2024-02-05T11:32:32.997Z,58.43
2024-02-05T11:34:59.301Z,58.49
2024-02-05T11:37:25.726Z,58.38
2024-02-05T11:39:52.181Z,58.43
2024-02-05T11:42:18.407Z,58.50
2024-02-05T11:44:44.631Z,58.25
2024-02-05T11:47:10.805Z,58.40
2024-02-05T11:49:37.134Z,58.17
2024-02-05T11:52:03.506Z,58.16
2024-02-05T11:54:29.722Z,58.35
2024-02-05T11:56:55.877Z,58.40
2024-02-05T11:59:22.010Z,58.27
2024-02-05T12:01:48.346Z,58.33
2024-02-05T12:04:14.580Z,58.00
2024-02-05T12:06:40.776Z,58.22
2024-02-05T12:09:06.954Z,58.17
2024-02-05T12:11:33.117Z,58.43
2024-02-05T12:13:59.360Z,58.48
2024-02-05T12:16:25.667Z,58.33
2024-02-05T12:18:53.805Z,58.46
2024-02-05T12:21:20.134Z,58.42
2024-02-05T12:23:46.308Z,58.22
2024-02-05T12:26:12.791Z,58.43
2024-02-05T12:28:38.973Z,58.32
2024-02-05T12:31:05.194Z,58.08
2024-02-05T12:33:31.388Z,58.35
2024-02-05T12:35:57.568Z,58.38
2024-02-05T12:38:23.764Z,58.20
2024-02-05T12:40:49.918Z,58.22
2024-02-05T12:43:16.135Z,58.16
2024-02-05T12:45:42.328Z,58.19
2024-02-05T12:48:08.560Z,58.40
2024-02-05T12:50:34.776Z,58.42
2024-02-05T12:53:00.968Z,58.32
2024-02-05T12:55:27.217Z,58.08
2024-02-05T12:57:53.431Z,58.35
2024-02-05T13:00:19.652Z,58.22
2024-02-05T13:02:46.422Z,58.23
2024-02-05T13:05:12.765Z,58.29
2024-02-05T13:07:39.174Z,58.38
2024-02-05T13:10:05.443Z,58.15
2024-02-05T13:12:31.613Z,58.13
2024-02-05T13:14:57.820Z,58.09
2024-02-05T13:17:23.979Z,57.75
2024-02-05T13:19:50.317Z,58.13
2024-02-05T13:22:16.601Z,58.16
2024-02-05T13:24:42.818Z,58.23
2024-02-05T13:27:08.964Z,58.09
2024-02-05T13:29:35.185Z,58.20
2024-02-05T13:32:01.359Z,58.06
2024-02-05T13:34:27.743Z,58.16
2024-02-05T13:36:54.151Z,58.28
2024-02-05T13:39:20.354Z,58.29
2024-02-05T13:41:46.531Z,58.25
2024-02-05T13:44:12.704Z,58.16
2024-02-05T13:46:39.041Z,58.20
2024-02-05T13:49:05.360Z,58.21
2024-02-05T13:51:31.562Z,58.03
2024-02-05T13:53:57.890Z,58.21
2024-02-05T13:56:24.069Z,57.97
2024-02-05T13:58:50.237Z,58.21
2024-02-05T14:01:16.453Z,58.10
2024-02-05T14:03:42.657Z,58.29
2024-02-05T14:06:08.853Z,58.21
2024-02-05T14:08:35.003Z,58.16
2024-02-05T14:11:01.132Z,58.03
2024-02-05T14:13:27.401Z,58.23
2024-02-05T14:15:53.928Z,58.06
2024-02-05T14:18:20.237Z,58.15
2024-02-05T14:20:46.456Z,58.13
2024-02-05T14:23:12.609Z,58.17
2024-02-05T14:25:38.810Z,57.88
2024-02-05T14:28:05.061Z,58.06
2024-02-05T14:30:31.294Z,58.14
2024-02-05T14:32:57.471Z,58.17
2024-02-05T14:35:23.798Z,57.97
2024-02-05T14:37:49.986Z,58.10
2024-02-05T14:40:16.199Z,57.93
2024-02-05T14:42:42.391Z,58.03
2024-02-05T14:45:08.576Z,57.99
2024-02-05T14:47:34.774Z,58.08
2024-02-05T14:50:01.112Z,57.94
2024-02-05T14:52:27.424Z,58.20
2024-02-05T14:54:53.611Z,58.00
2024-02-05T14:57:19.820Z,57.91
2024-02-05T14:59:45.954Z,57.92
2024-02-05T15:02:12.289Z,58.20
2024-02-05T15:04:38.620Z,57.88
2024-02-05T15:07:05.052Z,58.13
2024-02-05T15:09:31.263Z,58.11
2024-02-05T15:11:57.443Z,57.91
2024-02-05T15:14:23.892Z,58.14
2024-02-05T15:16:50.049Z,57.98
2024-02-05T15:19:16.311Z,57.93
2024-02-05T15:21:45.138Z,57.84
2024-02-05T15:24:12.489Z,58.05
2024-02-05T15:26:38.710Z,57.73
2024-02-05T15:29:04.924Z,57.93
2024-02-05T15:31:31.227Z,57.98
2024-02-05T15:33:57.710Z,57.91
2024-02-05T15:36:23.942Z,58.06
2024-02-05T15:38:50.076Z,58.07
2024-02-05T15:41:16.426Z,58.02
2024-02-05T15:43:42.591Z,58.00
2024-02-05T15:46:08.880Z,58.01
2024-02-05T15:48:35.153Z,58.03
2024-02-05T15:51:01.379Z,58.04
2024-02-05T15:53:27.537Z,58.09
2024-02-05T15:55:53.743Z,57.80
2024-02-05T15:58:19.920Z,57.94
2024-02-05T16:00:46.314Z,58.07
2024-02-05T16:03:12.615Z,58.22
2024-02-05T16:05:40.438Z,57.80
2024-02-05T16:08:06.743Z,58.03
2024-02-05T16:10:33.147Z,58.02
2024-02-05T16:12:59.360Z,57.86
2024-02-05T16:15:25.632Z,57.90
2024-02-05T16:17:51.855Z,58.03
2024-02-05T16:20:21.252Z,57.76
2024-02-05T16:22:48.595Z,57.90
2024-02-05T16:25:14.845Z,57.90
2024-02-05T16:27:41.033Z,57.94
2024-02-05T16:30:07.185Z,57.84
2024-02-05T16:32:33.412Z,57.79
2024-02-05T16:34:59.627Z,57.95
2024-02-05T16:37:29.350Z,57.84
2024-02-05T16:39:56.925Z,57.80
2024-02-05T16:42:23.069Z,58.00
2024-02-05T16:44:49.229Z,57.71
2024-02-05T16:47:15.415Z,57.85
2024-02-05T16:49:41.740Z,57.80
2024-02-05T16:52:08.048Z,57.71
2024-02-05T16:54:34.327Z,57.83
2024-02-05T16:57:00.554Z,57.96
2024-02-05T16:59:26.716Z,57.95
2024-02-05T17:01:52.925Z,57.73
2024-02-05T17:04:19.283Z,57.94
2024-02-05T17:06:45.513Z,57.73
2024-02-05T17:09:11.745Z,57.90
2024-02-05T17:11:37.893Z,57.83
2024-02-05T17:14:04.132Z,57.72
2024-02-05T17:16:38.475Z,57.88
2024-02-05T17:19:10.802Z,57.77
2024-02-05T17:21:37.020Z,57.82
2024-02-05T17:24:03.179Z,57.83
2024-02-05T17:26:29.318Z,57.83
2024-02-05T17:28:55.704Z,57.84
2024-02-05T17:31:21.880Z,57.94
2024-02-05T17:33:48.129Z,57.77
2024-02-05T17:36:14.505Z,57.93
2024-02-05T17:38:40.663Z,57.55
2024-02-05T17:41:06.845Z,57.79
2024-02-05T17:43:33.182Z,57.84
2024-02-05T17:45:59.469Z,57.92
2024-02-05T17:48:25.632Z,57.87
2024-02-05T17:50:51.976Z,57.89
2024-02-05T17:53:18.229Z,57.73
2024-02-05T17:55:44.458Z,57.59
2024-02-05T17:58:12.107Z,57.86
2024-02-05T18:00:38.384Z,57.65
2024-02-05T18:03:04.719Z,57.65
2024-02-05T18:05:30.983Z,57.58
2024-02-05T18:07:57.205Z,57.57
2024-02-05T18:10:23.438Z,57.64
2024-02-05T18:12:49.651Z,57.89
2024-02-05T18:15:15.841Z,57.78
2024-02-05T18:17:42.141Z,57.79
2024-02-05T18:20:08.622Z,57.66
2024-02-05T18:22:34.972Z,57.66
2024-02-05T18:25:01.170Z,57.73
2024-02-05T18:27:27.347Z,57.66
2024-02-05T18:29:53.499Z,57.68
2024-02-05T18:32:19.663Z,57.80
2024-02-05T18:34:46.893Z,57.58
2024-02-05T18:37:13.421Z,57.86
2024-02-05T18:39:39.591Z,57.57
2024-02-05T18:42:05.763Z,57.66
2024-02-05T18:44:31.905Z,57.75
2024-02-05T18:46:58.033Z,57.75
2024-02-05T18:49:24.258Z,57.79
2024-02-05T18:51:50.470Z,57.91
2024-02-05T18:54:16.687Z,57.77
2024-02-05T18:56:42.866Z,57.68
2024-02-05T18:59:09.008Z,57.50
2024-02-05T19:01:35.385Z,57.53
2024-02-05T19:04:01.768Z,57.49
2024-02-05T19:06:29.776Z,57.72
2024-02-05T19:08:56.166Z,57.78
2024-02-05T19:11:22.354Z,57.68
2024-02-05T19:13:48.580Z,57.72
2024-02-05T19:16:14.855Z,57.58
2024-02-05T19:18:41.053Z,57.51
2024-02-05T19:21:07.297Z,57.79
2024-02-05T19:23:33.757Z,57.79
2024-02-05T19:26:00.072Z,57.51
2024-02-05T19:28:26.378Z,57.70
2024-02-05T19:30:52.558Z,57.69
2024-02-05T19:33:19.047Z,57.68
2024-02-05T19:35:45.285Z,57.68
2024-02-05T19:38:11.408Z,57.65
2024-02-05T19:40:37.681Z,57.70
2024-02-05T19:43:04.008Z,57.53
2024-02-05T19:45:30.213Z,57.69
2024-02-05T19:47:56.436Z,57.64
2024-02-05T19:50:22.633Z,57.61
2024-02-05T19:52:48.822Z,57.76
2024-02-05T19:55:15.088Z,57.62
2024-02-05T19:57:41.256Z,57.42
2024-02-05T20:00:07.419Z,57.68
2024-02-05T20:02:33.627Z,57.52
2024-02-05T20:04:59.863Z,57.73
2024-02-05T20:07:26.207Z,57.45
2024-02-05T20:09:52.489Z,57.69
2024-02-05T20:12:18.688Z,57.63
2024-02-05T20:14:44.830Z,57.42
2024-02-05T20:17:10.991Z,57.32
2024-02-05T20:19:37.245Z,57.43
2024-02-05T20:22:03.490Z,57.37
2024-02-05T20:24:29.667Z,57.63
2024-02-05T20:26:55.803Z,57.36
2024-02-05T20:29:21.955Z,57.73
2024-02-05T20:31:48.191Z,57.61
2024-02-05T20:34:20.559Z,57.63
2024-02-05T20:36:52.957Z,57.59
2024-02-05T20:39:19.128Z,57.60
2024-02-05T20:41:45.288Z,57.56
2024-02-05T20:44:11.455Z,57.30
2024-02-05T20:46:37.658Z,57.62
2024-02-05T20:49:03.929Z,57.49
2024-02-05T20:51:30.161Z,57.54
2024-02-05T20:53:56.308Z,57.31
2024-02-05T20:56:22.448Z,57.26
2024-02-05T20:58:48.721Z,57.52
2024-02-05T21:01:15.017Z,57.64
2024-02-05T21:03:41.257Z,57.52
2024-02-05T21:06:07.512Z,57.26
2024-02-05T21:08:33.918Z,57.41
2024-02-05T21:11:01.116Z,57.52
2024-02-05T21:13:28.897Z,57.40
2024-02-05T21:15:55.116Z,57.43
2024-02-05T21:18:21.359Z,57.55
2024-02-05T21:20:47.583Z,57.52
2024-02-05T21:23:13.720Z,57.56
2024-02-05T21:25:39.982Z,57.34
2024-02-05T21:28:06.294Z,57.44
2024-02-05T21:30:35.472Z,57.47
2024-02-05T21:33:01.967Z,57.40
2024-02-05T21:35:28.440Z,57.46
2024-02-05T21:37:54.629Z,57.24
2024-02-05T21:40:20.868Z,57.19
2024-02-05T21:42:47.133Z,57.52
2024-02-05T21:45:13.419Z,57.46
2024-02-05T21:47:39.663Z,57.44
2024-02-05T21:50:05.907Z,57.53
2024-02-05T21:52:32.182Z,57.43
2024-02-05T21:54:58.448Z,57.43
2024-02-05T21:57:24.661Z,57.18
2024-02-05T21:59:50.865Z,57.28
2024-02-05T22:02:17.105Z,57.52
2024-02-05T22:04:43.431Z,57.23
2024-02-05T22:07:09.665Z,57.20
2024-02-05T22:09:35.862Z,57.58
2024-02-05T22:12:02.042Z,57.25
2024-02-05T22:14:28.180Z,57.44
2024-02-05T22:16:54.327Z,57.46
2024-02-05T22:19:20.608Z,57.43
2024-02-05T22:21:46.812Z,57.35
2024-02-05T22:24:12.959Z,57.14
2024-02-05T22:26:39.130Z,57.44
2024-02-05T22:29:05.286Z,57.23
2024-02-05T22:31:31.429Z,57.37
2024-02-05T22:33:57.783Z,57.30
2024-02-05T22:36:24.326Z,57.42
2024-02-05T22:38:50.503Z,57.29
2024-02-05T22:41:16.690Z,57.56
2024-02-05T22:43:42.949Z,57.41
2024-02-05T22:46:09.182Z,57.39
2024-02-05T22:48:35.556Z,57.37
2024-02-05T22:51:01.796Z,57.20
2024-02-05T22:53:27.932Z,57.37
2024-02-05T22:55:54.094Z,57.31
2024-02-05T22:58:20.270Z,57.19
2024-02-05T23:00:46.496Z,57.28
2024-02-05T23:03:12.799Z,57.14
2024-02-05T23:05:39.248Z,57.34
2024-02-05T23:08:05.526Z,57.28
2024-02-05T23:10:32.099Z,57.45
2024-02-05T23:12:58.338Z,57.00
2024-02-05T23:15:24.869Z,57.34
2024-02-05T23:17:51.054Z,57.41
2024-02-05T23:20:17.308Z,57.56
2024-02-05T23:22:43.517Z,57.13
2024-02-05T23:25:09.740Z,57.04
2024-02-05T23:27:35.933Z,57.62
2024-02-05T23:30:02.111Z,57.50
2024-02-05T23:32:28.281Z,57.06
2024-02-05T23:34:54.464Z,57.38
2024-02-05T23:37:20.831Z,57.17
2024-02-05T23:39:47.181Z,57.18
2024-02-05T23:42:13.386Z,57.35
2024-02-05T23:44:39.585Z,57.20
2024-02-05T23:47:05.762Z,57.35
2024-02-05T23:49:32.067Z,57.02
2024-02-05T23:51:58.350Z,57.35
2024-02-05T23:54:24.561Z,57.07
2024-02-05T23:56:50.694Z,57.52
2024-02-05T23:59:16.843Z,57.09
